Řízení letového provozu České republiky
Letiste: LKKB Aktualizace: 29.04.2017 05:06:14  UTC
 METAR LKKB 29.04. 05:00 ...
METAR LKKB 290500Z 22008KT 7000 NSC 04/03 Q1016 NOSIG =
 TAF LKKB 28.04. 23:00 ...
TAF LKKB 282300Z 2900/3000 25006KT 9999 SCT040      TEMPO 2900/2908 CAVOK      TEMPO 2910/2920 28012KT 8000 SHRA BKN025=